createdAt,value
2023-06-10T00:00:23.812Z,100.00
2023-06-10T00:02:52.004Z,100.00
2023-06-10T00:05:22.578Z,100.00
2023-06-10T00:07:50.736Z,100.00
2023-06-10T00:10:19.033Z,100.00
2023-06-10T00:12:47.139Z,100.00
2023-06-10T00:15:15.334Z,100.00
2023-06-10T00:17:43.736Z,100.00
2023-06-10T00:20:13.649Z,100.00
2023-06-10T00:22:47.026Z,100.00
2023-06-10T00:25:15.278Z,100.00
2023-06-10T00:27:43.637Z,100.00
2023-06-10T00:30:12.993Z,100.00
2023-06-10T00:32:41.429Z,100.00
2023-06-10T00:35:10.237Z,100.00
2023-06-10T00:37:38.999Z,100.00
2023-06-10T00:40:10.977Z,100.00
2023-06-10T00:42:39.205Z,100.00
2023-06-10T00:45:09.281Z,100.00
2023-06-10T00:47:38.139Z,100.00
2023-06-10T00:50:07.606Z,100.00
2023-06-10T00:52:37.130Z,100.00
2023-06-10T00:55:05.644Z,100.00
2023-06-10T00:57:53.530Z,100.00
2023-06-10T01:01:05.075Z,100.00
2023-06-10T01:07:22.667Z,100.00
2023-06-10T01:09:58.481Z,100.00
2023-06-10T01:12:34.352Z,100.00
2023-06-10T01:15:06.726Z,100.00
2023-06-10T01:17:34.921Z,100.00
2023-06-10T01:20:05.133Z,100.00
2023-06-10T01:22:37.657Z,100.00
2023-06-10T01:25:09.331Z,100.00
2023-06-10T01:27:41.824Z,100.00
2023-06-10T01:30:17.369Z,100.00
2023-06-10T01:32:48.969Z,100.00
2023-06-10T01:35:18.192Z,100.00
2023-06-10T01:37:48.994Z,100.00
2023-06-10T01:40:18.258Z,100.00
2023-06-10T01:42:46.185Z,100.00
2023-06-10T01:45:14.427Z,100.00
2023-06-10T01:47:42.526Z,100.00
2023-06-10T01:50:11.469Z,100.00
2023-06-10T01:52:39.613Z,100.00
2023-06-10T01:55:12.304Z,100.00
2023-06-10T01:57:40.309Z,100.00
2023-06-10T02:00:09.550Z,100.00
2023-06-10T02:02:37.602Z,100.00
2023-06-10T02:05:06.596Z,100.00
2023-06-10T02:07:34.537Z,100.00
2023-06-10T02:10:02.450Z,100.00
2023-06-10T02:12:31.812Z,100.00
2023-06-10T02:14:59.788Z,100.00
2023-06-10T02:17:27.701Z,100.00
2023-06-10T02:19:55.757Z,100.00
2023-06-10T02:22:24.594Z,100.00
2023-06-10T02:24:52.448Z,100.00
2023-06-10T02:27:21.705Z,100.00
2023-06-10T02:29:50.939Z,100.00
2023-06-10T02:32:19.096Z,100.00
2023-06-10T02:34:49.381Z,100.00
2023-06-10T02:37:19.520Z,100.00
2023-06-10T02:39:47.390Z,100.00
2023-06-10T02:42:15.386Z,100.00
2023-06-10T02:44:43.173Z,100.00
2023-06-10T02:47:12.601Z,100.00
2023-06-10T02:49:41.205Z,100.00
2023-06-10T02:52:09.686Z,100.00
2023-06-10T02:54:37.865Z,100.00
2023-06-10T02:57:07.327Z,100.00
2023-06-10T02:59:36.059Z,100.00
2023-06-10T03:02:04.105Z,100.00
2023-06-10T03:04:33.356Z,100.00
2023-06-10T03:07:04.928Z,100.00
2023-06-10T03:09:32.923Z,100.00
2023-06-10T03:12:01.847Z,100.00
2023-06-10T03:14:29.810Z,100.00
2023-06-10T03:16:57.767Z,100.00
2023-06-10T03:19:25.637Z,100.00
2023-06-10T03:22:08.810Z,100.00
2023-06-10T03:24:37.665Z,100.00
2023-06-10T03:27:07.703Z,100.00
2023-06-10T03:29:35.908Z,100.00
2023-06-10T03:32:03.890Z,100.00
2023-06-10T03:34:32.095Z,100.00
2023-06-10T03:37:01.468Z,100.00
2023-06-10T03:39:30.421Z,100.00
2023-06-10T03:41:58.889Z,100.00
2023-06-10T03:44:27.212Z,100.00
2023-06-10T03:46:55.254Z,100.00
2023-06-10T03:49:28.194Z,100.00
2023-06-10T03:51:56.153Z,100.00
2023-06-10T03:54:25.769Z,100.00
2023-06-10T03:56:53.679Z,100.00
2023-06-10T03:59:21.616Z,100.00
2023-06-10T04:01:49.548Z,100.00
2023-06-10T04:04:18.594Z,100.00
2023-06-10T04:06:46.601Z,100.00
2023-06-10T04:09:14.680Z,100.00
2023-06-10T04:11:44.070Z,100.00
2023-06-10T04:14:12.005Z,100.00
2023-06-10T04:16:39.924Z,100.00
2023-06-10T04:19:07.865Z,100.00
2023-06-10T04:21:37.118Z,100.00
2023-06-10T04:24:05.752Z,100.00
2023-06-10T04:26:34.753Z,100.00
2023-06-10T04:29:04.055Z,100.00
2023-06-10T04:31:33.453Z,100.00
2023-06-10T04:34:01.986Z,100.00
2023-06-10T04:36:30.443Z,100.00
2023-06-10T04:38:58.279Z,100.00
2023-06-10T04:41:26.934Z,100.00
2023-06-10T04:43:54.853Z,100.00
2023-06-10T04:46:26.462Z,100.00
2023-06-10T04:48:55.696Z,100.00
2023-06-10T04:51:23.629Z,100.00
2023-06-10T04:53:51.591Z,100.00
2023-06-10T04:56:19.590Z,100.00
2023-06-10T04:58:47.515Z,100.00
2023-06-10T05:01:15.488Z,100.00
2023-06-10T05:03:45.936Z,100.00
2023-06-10T05:06:13.954Z,100.00
2023-06-10T05:08:41.942Z,100.00
2023-06-10T05:11:09.877Z,100.00
2023-06-10T05:13:37.893Z,100.00
2023-06-10T05:16:06.202Z,100.00
2023-06-10T05:18:34.161Z,100.00
2023-06-10T05:21:03.527Z,100.00
2023-06-10T05:23:31.726Z,100.00
2023-06-10T05:26:00.694Z,100.00
2023-06-10T05:28:28.593Z,100.00
2023-06-10T05:30:56.627Z,100.00
2023-06-10T05:33:24.625Z,100.00
2023-06-10T05:35:52.577Z,100.00
2023-06-10T05:38:21.966Z,100.00
2023-06-10T05:40:49.992Z,100.00
2023-06-10T05:43:18.657Z,100.00
2023-06-10T05:45:46.841Z,100.00
2023-06-10T05:48:14.867Z,100.00
2023-06-10T05:50:43.956Z,100.00
2023-06-10T05:53:16.157Z,100.00
2023-06-10T05:55:46.743Z,100.00
2023-06-10T05:58:15.784Z,100.00
2023-06-10T06:00:43.787Z,100.00
2023-06-10T06:03:12.387Z,100.00
2023-06-10T06:05:40.591Z,100.00
2023-06-10T06:08:09.210Z,100.00
2023-06-10T06:10:37.374Z,100.00
2023-06-10T06:13:06.691Z,100.00
2023-06-10T06:15:34.726Z,100.00
2023-06-10T06:18:02.646Z,100.00
2023-06-10T06:20:30.911Z,100.00
2023-06-10T06:22:58.878Z,100.00
2023-06-10T06:25:26.907Z,100.00
2023-06-10T06:27:54.900Z,100.00
2023-06-10T06:30:24.121Z,100.00
2023-06-10T06:32:53.002Z,100.00
2023-06-10T06:35:21.345Z,100.00
2023-06-10T06:37:49.330Z,100.00
2023-06-10T06:40:17.974Z,100.00
2023-06-10T06:42:46.550Z,100.00
2023-06-10T06:45:14.593Z,100.00
2023-06-10T06:47:44.468Z,100.00
2023-06-10T06:50:12.784Z,100.00
2023-06-10T06:52:40.934Z,100.00
2023-06-10T06:55:10.035Z,100.00
2023-06-10T06:57:38.712Z,100.00
2023-06-10T07:00:09.116Z,100.00
2023-06-10T07:02:37.339Z,100.00
2023-06-10T07:05:07.617Z,100.00
2023-06-10T07:07:35.934Z,100.00
2023-06-10T07:10:03.932Z,100.00
2023-06-10T07:12:31.905Z,100.00
2023-06-10T07:14:59.935Z,100.00
2023-06-10T07:17:28.282Z,100.00
2023-06-10T07:19:58.530Z,100.00
2023-06-10T07:22:28.117Z,100.00
2023-06-10T07:24:56.709Z,100.00
2023-06-10T07:27:24.913Z,99.83
2023-06-10T07:29:53.037Z,100.00
2023-06-10T07:32:23.436Z,98.85
2023-06-10T07:34:51.556Z,97.92
2023-06-10T07:37:20.861Z,96.25
2023-06-10T07:39:50.212Z,95.13
2023-06-10T07:42:18.242Z,93.11
2023-06-10T07:44:46.372Z,93.15
2023-06-10T07:47:14.470Z,92.98
2023-06-10T07:49:44.285Z,91.10
2023-06-10T07:52:12.273Z,90.41
2023-06-10T07:54:40.180Z,91.05
2023-06-10T07:57:09.750Z,91.85
2023-06-10T07:59:40.838Z,90.89
2023-06-10T08:02:08.804Z,91.75
2023-06-10T08:04:37.419Z,91.51
2023-06-10T08:07:05.982Z,90.02
2023-06-10T08:09:33.974Z,88.47
2023-06-10T08:12:02.003Z,88.64
2023-06-10T08:14:31.334Z,88.87
2023-06-10T08:17:02.404Z,87.40
2023-06-10T08:19:31.857Z,89.85
2023-06-10T08:22:00.006Z,85.11
2023-06-10T08:24:28.199Z,85.42
2023-06-10T08:26:57.511Z,85.58
2023-06-10T08:29:26.050Z,84.54
2023-06-10T08:31:55.507Z,86.53
2023-06-10T08:34:23.430Z,83.35
2023-06-10T08:36:54.172Z,81.01
2023-06-10T08:39:22.257Z,80.15
2023-06-10T08:41:59.694Z,77.72
2023-06-10T08:44:30.715Z,76.75
2023-06-10T08:47:02.354Z,74.29
2023-06-10T08:49:36.344Z,68.88
2023-06-10T08:52:05.826Z,70.83
2023-06-10T08:54:39.140Z,68.78
2023-06-10T08:57:08.769Z,67.21
2023-06-10T08:59:37.061Z,66.32
2023-06-10T09:02:07.419Z,66.15
2023-06-10T09:04:35.910Z,64.67
2023-06-10T09:07:04.838Z,63.10
2023-06-10T09:09:33.935Z,61.60
2023-06-10T09:12:04.964Z,58.20
2023-06-10T09:14:32.925Z,56.63
2023-06-10T09:17:01.041Z,55.37
2023-06-10T09:19:31.253Z,52.37
2023-06-10T09:21:59.417Z,49.39
2023-06-10T09:24:27.852Z,49.33
2023-06-10T09:27:04.871Z,48.64
2023-06-10T09:29:32.845Z,47.96
2023-06-10T09:32:00.993Z,46.68
2023-06-10T09:34:31.088Z,47.68
2023-06-10T09:36:59.160Z,48.25
2023-06-10T09:39:27.138Z,49.81
2023-06-10T09:41:55.198Z,50.04
2023-06-10T09:44:26.664Z,51.16
2023-06-10T09:46:55.826Z,51.06
2023-06-10T09:49:23.809Z,50.55
2023-06-10T09:51:54.970Z,49.15
2023-06-10T09:54:23.913Z,50.24
2023-06-10T09:56:53.989Z,51.55
2023-06-10T09:59:33.162Z,51.76
2023-06-10T10:02:01.927Z,52.16
2023-06-10T10:04:30.558Z,52.43
2023-06-10T10:07:00.739Z,50.72
2023-06-10T10:09:28.803Z,48.94
2023-06-10T10:11:58.366Z,48.54
2023-06-10T10:14:27.578Z,47.83
2023-06-10T10:16:57.847Z,46.97
2023-06-10T10:19:31.143Z,47.31
2023-06-10T10:22:06.353Z,46.42
2023-06-10T10:24:38.852Z,45.28
2023-06-10T10:27:13.582Z,44.57
2023-06-10T10:29:44.184Z,45.05
2023-06-10T10:32:16.822Z,44.89
2023-06-10T10:34:52.964Z,45.17
2023-06-10T10:37:22.878Z,44.76
2023-06-10T10:39:51.938Z,45.76
2023-06-10T10:42:21.068Z,47.08
2023-06-10T10:44:49.355Z,45.65
2023-06-10T10:47:18.693Z,44.94
2023-06-10T10:49:50.937Z,42.81
2023-06-10T10:52:18.968Z,42.52
2023-06-10T10:54:49.065Z,42.37
2023-06-10T10:57:19.460Z,41.36
2023-06-10T10:59:57.704Z,41.31
2023-06-10T11:02:39.742Z,40.99
2023-06-10T11:05:09.899Z,44.03
2023-06-10T11:07:38.724Z,50.61
2023-06-10T11:10:11.350Z,47.14
2023-06-10T11:12:54.658Z,50.86
2023-06-10T11:15:25.249Z,48.03
2023-06-10T11:18:13.116Z,46.04
2023-06-10T11:21:01.621Z,43.86
2023-06-10T11:23:45.399Z,46.29
2023-06-10T11:26:35.608Z,44.16
2023-06-10T11:29:10.285Z,44.29
2023-06-10T11:31:57.294Z,44.88
2023-06-10T11:34:28.248Z,45.71
2023-06-10T11:36:56.526Z,43.54
2023-06-10T11:39:27.416Z,44.54
2023-06-10T11:41:57.582Z,44.25
2023-06-10T11:44:33.375Z,42.51
2023-06-10T11:47:01.426Z,44.17
2023-06-10T11:49:29.485Z,44.15
2023-06-10T11:51:57.683Z,42.12
2023-06-10T11:54:25.782Z,41.51
2023-06-10T11:57:01.753Z,41.17
2023-06-10T11:59:30.238Z,42.11
2023-06-10T12:01:58.643Z,43.26
2023-06-10T12:04:27.395Z,44.40
2023-06-10T12:06:56.132Z,45.52
2023-06-10T12:09:27.780Z,46.32
2023-06-10T12:12:00.299Z,47.05
2023-06-10T12:14:58.286Z,47.22
2023-06-10T12:17:39.158Z,47.81
2023-06-10T12:20:10.390Z,48.02
2023-06-10T12:22:39.544Z,48.84
2023-06-10T12:25:09.444Z,49.17
2023-06-10T12:27:38.769Z,49.85
2023-06-10T12:30:09.275Z,47.50
2023-06-10T12:32:38.529Z,46.04
2023-06-10T12:35:08.415Z,45.47
2023-06-10T12:37:40.231Z,42.58
2023-06-10T12:40:11.466Z,44.43
2023-06-10T12:42:40.273Z,44.50
2023-06-10T12:45:11.899Z,42.91
2023-06-10T12:47:40.976Z,39.48
2023-06-10T12:50:10.298Z,39.55
2023-06-10T12:52:38.389Z,37.83
2023-06-10T12:55:08.031Z,37.03
2023-06-10T12:57:36.318Z,35.76
2023-06-10T13:00:09.602Z,34.42
2023-06-10T13:02:39.009Z,33.20
2023-06-10T13:05:07.268Z,31.87
2023-06-10T13:07:35.446Z,31.25
2023-06-10T13:10:03.637Z,30.27
2023-06-10T13:12:46.111Z,28.80
2023-06-10T13:15:16.909Z,27.38
2023-06-10T13:17:50.314Z,26.52
2023-06-10T13:20:19.539Z,25.79
2023-06-10T13:22:48.701Z,25.17
2023-06-10T13:25:16.982Z,24.19
2023-06-10T13:27:45.234Z,23.54
2023-06-10T13:30:13.962Z,22.69
2023-06-10T13:32:42.072Z,22.30
2023-06-10T13:35:11.825Z,23.59
2023-06-10T13:37:40.114Z,25.45
2023-06-10T13:40:09.729Z,26.10
2023-06-10T13:42:38.361Z,26.69
2023-06-10T13:45:08.215Z,28.38
2023-06-10T13:47:36.451Z,29.28
2023-06-10T13:50:04.549Z,29.31
2023-06-10T13:52:34.117Z,31.05
2023-06-10T13:55:02.006Z,33.23
2023-06-10T13:57:30.158Z,36.40
2023-06-10T13:59:58.205Z,38.29
2023-06-10T14:02:26.236Z,39.44
2023-06-10T14:04:54.434Z,41.15
2023-06-10T14:07:22.455Z,43.22
2023-06-10T14:09:52.697Z,46.40
2023-06-10T14:12:20.759Z,46.90
2023-06-10T14:14:50.893Z,45.41
2023-06-10T14:17:22.068Z,46.04
2023-06-10T14:19:50.084Z,50.01
2023-06-10T14:22:18.077Z,53.66
2023-06-10T14:24:46.077Z,59.46
2023-06-10T14:27:16.327Z,63.49
2023-06-10T14:29:44.462Z,67.40
2023-06-10T14:32:12.522Z,70.17
2023-06-10T14:34:40.617Z,73.95
2023-06-10T14:37:09.443Z,75.55
2023-06-10T14:39:39.280Z,78.98
2023-06-10T14:42:08.041Z,78.62
2023-06-10T14:44:37.603Z,78.04
2023-06-10T14:47:06.181Z,77.06
2023-06-10T14:49:34.286Z,76.96
2023-06-10T14:52:02.463Z,72.33
2023-06-10T14:54:30.592Z,68.47
2023-06-10T14:56:58.666Z,68.55
2023-06-10T14:59:26.782Z,68.59
2023-06-10T15:01:56.324Z,67.39
2023-06-10T15:04:25.021Z,66.20
2023-06-10T15:06:53.169Z,64.22
2023-06-10T15:09:21.703Z,56.71
2023-06-10T15:11:49.785Z,52.06
2023-06-10T15:14:17.842Z,47.06
2023-06-10T15:16:46.133Z,42.98
2023-06-10T15:19:15.674Z,41.32
2023-06-10T15:21:43.641Z,41.54
2023-06-10T15:24:12.295Z,40.56
2023-06-10T15:26:40.433Z,38.73
2023-06-10T15:29:08.388Z,37.66
2023-06-10T15:31:36.456Z,37.86
2023-06-10T15:34:04.879Z,38.50
2023-06-10T15:36:34.273Z,39.42
2023-06-10T15:39:05.225Z,39.88
2023-06-10T15:41:33.287Z,40.70
2023-06-10T15:44:01.925Z,40.49
2023-06-10T15:46:30.686Z,40.36
2023-06-10T15:48:58.883Z,40.74
2023-06-10T15:51:26.883Z,40.21
2023-06-10T15:53:56.574Z,39.49
2023-06-10T15:56:24.763Z,37.80
2023-06-10T15:58:52.908Z,35.01
2023-06-10T16:01:24.063Z,32.10
2023-06-10T16:03:52.708Z,29.76
2023-06-10T16:06:20.997Z,27.50
2023-06-10T16:08:49.197Z,26.10
2023-06-10T16:11:18.712Z,23.67
2023-06-10T16:13:46.833Z,22.71
2023-06-10T16:16:15.011Z,22.14
2023-06-10T16:18:42.941Z,21.87
2023-06-10T16:21:11.139Z,21.55
2023-06-10T16:23:40.195Z,21.41
2023-06-10T16:26:08.364Z,21.98
2023-06-10T16:28:37.860Z,21.65
2023-06-10T16:31:06.007Z,21.49
2023-06-10T16:33:34.139Z,21.20
2023-06-10T16:36:02.229Z,21.86
2023-06-10T16:38:30.331Z,21.51
2023-06-10T16:40:58.901Z,21.88
2023-06-10T16:43:27.742Z,22.31
2023-06-10T16:45:58.167Z,23.27
2023-06-10T16:48:26.505Z,24.61
2023-06-10T16:50:54.703Z,27.12
2023-06-10T16:53:22.852Z,29.14
2023-06-10T16:55:50.911Z,31.08
2023-06-10T16:58:18.916Z,32.97
2023-06-10T17:00:47.156Z,35.03
2023-06-10T17:03:19.458Z,36.62
2023-06-10T17:05:47.695Z,38.80
2023-06-10T17:08:15.838Z,40.51
2023-06-10T17:10:44.472Z,42.17
2023-06-10T17:13:13.220Z,43.70
2023-06-10T17:15:41.909Z,45.51
2023-06-10T17:18:10.269Z,46.92
2023-06-10T17:20:39.768Z,47.66
2023-06-10T17:23:08.872Z,47.16
2023-06-10T17:25:37.813Z,46.79
2023-06-10T17:28:05.937Z,47.04
2023-06-10T17:30:34.066Z,47.72
2023-06-10T17:33:02.079Z,49.15
2023-06-10T17:35:32.054Z,50.19
2023-06-10T17:38:01.520Z,52.78
2023-06-10T17:40:29.604Z,54.69
2023-06-10T17:42:57.818Z,56.10
2023-06-10T17:45:25.872Z,57.70
2023-06-10T17:47:53.911Z,60.50
2023-06-10T17:50:21.901Z,63.80
2023-06-10T17:52:49.784Z,66.71
2023-06-10T17:55:19.287Z,69.13
2023-06-10T17:57:47.302Z,71.23
2023-06-10T18:00:16.243Z,73.70
2023-06-10T18:02:44.297Z,75.03
2023-06-10T18:05:12.745Z,77.52
2023-06-10T18:07:40.961Z,79.66
2023-06-10T18:10:10.274Z,81.39
2023-06-10T18:12:39.814Z,83.95
2023-06-10T18:15:09.150Z,85.34
2023-06-10T18:17:37.416Z,87.58
2023-06-10T18:20:06.092Z,89.64
2023-06-10T18:22:34.102Z,91.79
2023-06-10T18:25:05.798Z,94.24
2023-06-10T18:27:34.165Z,96.67
2023-06-10T18:30:06.273Z,99.67
2023-06-10T18:32:34.435Z,100.00
2023-06-10T18:35:02.458Z,100.00
2023-06-10T18:37:30.568Z,100.00
2023-06-10T18:39:58.618Z,100.00
2023-06-10T18:42:26.942Z,100.00
2023-06-10T18:44:55.011Z,100.00
2023-06-10T18:47:24.476Z,100.00
2023-06-10T18:49:52.707Z,100.00
2023-06-10T18:52:20.730Z,100.00
2023-06-10T18:54:48.908Z,100.00
2023-06-10T18:57:16.935Z,100.00
2023-06-10T18:59:44.990Z,100.00
2023-06-10T19:02:13.149Z,100.00
2023-06-10T19:04:42.795Z,100.00
2023-06-10T19:07:10.761Z,100.00
2023-06-10T19:09:39.846Z,100.00
2023-06-10T19:12:09.313Z,100.00
2023-06-10T19:14:39.411Z,100.00
2023-06-10T19:17:08.974Z,100.00
2023-06-10T19:19:37.307Z,100.00
2023-06-10T19:22:07.468Z,100.00
2023-06-10T19:24:35.552Z,100.00
2023-06-10T19:27:03.552Z,100.00
2023-06-10T19:29:31.667Z,100.00
2023-06-10T19:32:00.222Z,100.00
2023-06-10T19:34:28.317Z,100.00
2023-06-10T19:36:56.381Z,100.00
2023-06-10T19:39:25.883Z,100.00
2023-06-10T19:41:54.129Z,100.00
2023-06-10T19:44:22.144Z,100.00
2023-06-10T19:46:50.296Z,100.00
2023-06-10T19:49:18.514Z,100.00
2023-06-10T19:51:49.075Z,100.00
2023-06-10T19:54:17.274Z,100.00
2023-06-10T19:56:46.873Z,100.00
2023-06-10T19:59:15.485Z,100.00
2023-06-10T20:01:44.162Z,100.00
2023-06-10T20:04:12.273Z,100.00
2023-06-10T20:06:41.522Z,100.00
2023-06-10T20:09:09.599Z,100.00
2023-06-10T20:11:37.588Z,100.00
2023-06-10T20:14:07.055Z,100.00
2023-06-10T20:16:35.178Z,100.00
2023-06-10T20:19:04.100Z,100.00
2023-06-10T20:21:32.136Z,100.00
2023-06-10T20:24:00.182Z,100.00
2023-06-10T20:26:28.318Z,100.00
2023-06-10T20:28:56.436Z,100.00
2023-06-10T20:31:27.492Z,100.00
2023-06-10T20:33:55.560Z,100.00
2023-06-10T20:36:24.382Z,100.00
2023-06-10T20:38:52.627Z,100.00
2023-06-10T20:41:22.738Z,100.00
2023-06-10T20:43:50.888Z,100.00
2023-06-10T20:46:19.030Z,100.00
2023-06-10T20:48:48.392Z,100.00
2023-06-10T20:51:17.020Z,100.00
2023-06-10T20:53:45.196Z,100.00
2023-06-10T20:56:13.188Z,100.00
2023-06-10T20:58:41.997Z,100.00
2023-06-10T21:01:10.094Z,100.00
2023-06-10T21:03:38.151Z,100.00
2023-06-10T21:06:08.198Z,100.00
2023-06-10T21:08:36.276Z,100.00
2023-06-10T21:11:04.506Z,100.00
2023-06-10T21:13:32.524Z,100.00
2023-06-10T21:16:00.498Z,100.00
2023-06-10T21:18:29.391Z,100.00
2023-06-10T21:20:57.352Z,100.00
2023-06-10T21:23:26.988Z,100.00
2023-06-10T21:25:54.828Z,100.00
2023-06-10T21:28:22.759Z,100.00
2023-06-10T21:30:51.099Z,100.00
2023-06-10T21:33:19.162Z,100.00
2023-06-10T21:35:47.062Z,100.00
2023-06-10T21:38:15.051Z,100.00
2023-06-10T21:40:44.403Z,100.00
2023-06-10T21:43:12.432Z,100.00
2023-06-10T21:45:40.475Z,100.00
2023-06-10T21:48:08.722Z,100.00
2023-06-10T21:50:37.211Z,100.00
2023-06-10T21:53:05.208Z,100.00
2023-06-10T21:55:33.076Z,100.00
2023-06-10T21:58:02.528Z,100.00
2023-06-10T22:00:30.623Z,100.00
2023-06-10T22:02:59.494Z,100.00
2023-06-10T22:05:27.600Z,100.00
2023-06-10T22:07:55.866Z,100.00
2023-06-10T22:10:24.041Z,100.00
2023-06-10T22:12:52.269Z,100.00
2023-06-10T22:15:22.098Z,100.00
2023-06-10T22:17:50.037Z,100.00
2023-06-10T22:20:20.074Z,100.00
2023-06-10T22:22:50.872Z,100.00
2023-06-10T22:25:18.740Z,100.00
2023-06-10T22:27:48.886Z,100.00
2023-06-10T22:30:17.100Z,100.00
2023-06-10T22:32:46.821Z,100.00
2023-06-10T22:35:15.780Z,100.00
2023-06-10T22:37:43.764Z,100.00
2023-06-10T22:40:12.415Z,100.00
2023-06-10T22:42:40.484Z,100.00
2023-06-10T22:45:09.402Z,100.00
2023-06-10T22:47:39.794Z,100.00
2023-06-10T22:50:10.309Z,100.00
2023-06-10T22:52:38.476Z,100.00
2023-06-10T22:55:07.407Z,100.00
2023-06-10T22:57:38.603Z,100.00
2023-06-10T23:00:08.814Z,100.00
2023-06-10T23:02:37.328Z,100.00
2023-06-10T23:05:05.874Z,100.00
2023-06-10T23:07:36.149Z,100.00
2023-06-10T23:10:04.206Z,100.00
2023-06-10T23:12:32.222Z,100.00
2023-06-10T23:15:00.216Z,100.00
2023-06-10T23:17:29.791Z,100.00
2023-06-10T23:19:59.673Z,100.00
2023-06-10T23:22:32.058Z,100.00
2023-06-10T23:25:03.754Z,100.00
2023-06-10T23:27:31.942Z,100.00
2023-06-10T23:30:00.870Z,100.00
2023-06-10T23:32:29.203Z,100.00
2023-06-10T23:34:57.565Z,100.00
2023-06-10T23:37:26.882Z,100.00
2023-06-10T23:39:55.258Z,100.00
2023-06-10T23:42:25.662Z,100.00
2023-06-10T23:44:56.471Z,100.00
2023-06-10T23:47:24.511Z,100.00
2023-06-10T23:49:52.535Z,100.00
2023-06-10T23:52:22.500Z,100.00
2023-06-10T23:54:50.687Z,100.00
2023-06-10T23:57:18.793Z,100.00
2023-06-10T23:59:48.119Z,100.00
